sensor_id;sensor_type;location;lat;lon;timestamp;P1;durP1;ratioP1;P2;durP2;ratioP2
28068;SDS011;15382;47.578;8.086;2022-11-20T00:04:51;12.60;;;6.20;;
28068;SDS011;15382;47.578;8.086;2022-11-20T00:24:52;6.87;;;3.87;;
28068;SDS011;15382;47.578;8.086;2022-11-20T00:44:54;14.23;;;5.17;;
28068;SDS011;15382;47.578;8.086;2022-11-20T01:04:55;12.60;;;6.43;;
28068;SDS011;15382;47.578;8.086;2022-11-20T01:14:56;10.98;;;6.13;;
28068;SDS011;15382;47.578;8.086;2022-11-20T01:24:56;10.98;;;5.97;;
28068;SDS011;15382;47.578;8.086;2022-11-20T01:44:59;12.90;;;5.80;;
28068;SDS011;15382;47.578;8.086;2022-11-20T01:55:04;11.15;;;5.45;;
28068;SDS011;15382;47.578;8.086;2022-11-20T02:05:12;10.40;;;5.22;;
28068;SDS011;15382;47.578;8.086;2022-11-20T02:15:19;12.10;;;5.80;;
28068;SDS011;15382;47.578;8.086;2022-11-20T02:25:20;10.52;;;4.38;;
28068;SDS011;15382;47.578;8.086;2022-11-20T02:45:22;9.53;;;4.20;;
28068;SDS011;15382;47.578;8.086;2022-11-20T02:55:24;6.65;;;2.90;;
28068;SDS011;15382;47.578;8.086;2022-11-20T03:05:25;4.82;;;3.20;;
28068;SDS011;15382;47.578;8.086;2022-11-20T03:15:26;7.15;;;3.10;;
28068;SDS011;15382;47.578;8.086;2022-11-20T03:25:26;6.57;;;3.25;;
28068;SDS011;15382;47.578;8.086;2022-11-20T03:45:28;9.68;;;2.47;;
28068;SDS011;15382;47.578;8.086;2022-11-20T03:55:29;9.57;;;2.72;;
28068;SDS011;15382;47.578;8.086;2022-11-20T04:05:29;4.60;;;2.40;;
28068;SDS011;15382;47.578;8.086;2022-11-20T04:15:30;5.75;;;2.92;;
28068;SDS011;15382;47.578;8.086;2022-11-20T04:25:31;7.10;;;2.97;;
28068;SDS011;15382;47.578;8.086;2022-11-20T04:35:36;9.38;;;3.25;;
28068;SDS011;15382;47.578;8.086;2022-11-20T04:45:37;3.83;;;2.50;;
28068;SDS011;15382;47.578;8.086;2022-11-20T04:55:38;11.15;;;3.38;;
28068;SDS011;15382;47.578;8.086;2022-11-20T05:05:39;3.35;;;2.03;;
28068;SDS011;15382;47.578;8.086;2022-11-20T05:15:39;1.40;;;1.00;;
28068;SDS011;15382;47.578;8.086;2022-11-20T05:25:40;1.50;;;1.00;;
28068;SDS011;15382;47.578;8.086;2022-11-20T05:35:41;1.77;;;1.20;;
28068;SDS011;15382;47.578;8.086;2022-11-20T05:45:42;2.65;;;1.50;;
28068;SDS011;15382;47.578;8.086;2022-11-20T05:55:42;2.40;;;1.33;;
28068;SDS011;15382;47.578;8.086;2022-11-20T06:05:43;2.72;;;1.30;;
28068;SDS011;15382;47.578;8.086;2022-11-20T06:15:50;7.45;;;2.28;;
28068;SDS011;15382;47.578;8.086;2022-11-20T06:25:52;7.85;;;2.30;;
28068;SDS011;15382;47.578;8.086;2022-11-20T06:35:55;5.00;;;2.58;;
28068;SDS011;15382;47.578;8.086;2022-11-20T06:45:57;6.72;;;2.90;;
28068;SDS011;15382;47.578;8.086;2022-11-20T06:55:59;3.72;;;2.55;;
28068;SDS011;15382;47.578;8.086;2022-11-20T07:06:00;6.47;;;2.80;;
28068;SDS011;15382;47.578;8.086;2022-11-20T07:16:02;3.85;;;2.53;;
28068;SDS011;15382;47.578;8.086;2022-11-20T07:26:06;4.03;;;2.55;;
28068;SDS011;15382;47.578;8.086;2022-11-20T07:36:08;4.22;;;2.45;;
28068;SDS011;15382;47.578;8.086;2022-11-20T07:46:09;5.05;;;2.45;;
28068;SDS011;15382;47.578;8.086;2022-11-20T07:56:10;10.82;;;6.03;;
28068;SDS011;15382;47.578;8.086;2022-11-20T08:16:11;2.93;;;2.03;;
28068;SDS011;15382;47.578;8.086;2022-11-20T08:26:12;3.70;;;1.50;;
28068;SDS011;15382;47.578;8.086;2022-11-20T08:36:13;2.00;;;1.30;;
28068;SDS011;15382;47.578;8.086;2022-11-20T08:46:14;3.50;;;1.60;;
28068;SDS011;15382;47.578;8.086;2022-11-20T08:56:15;3.03;;;1.73;;
28068;SDS011;15382;47.578;8.086;2022-11-20T09:06:16;2.30;;;1.20;;
28068;SDS011;15382;47.578;8.086;2022-11-20T09:16:17;2.63;;;1.60;;
28068;SDS011;15382;47.578;8.086;2022-11-20T09:36:19;1.80;;;1.40;;
28068;SDS011;15382;47.578;8.086;2022-11-20T09:56:28;1.42;;;0.90;;
28068;SDS011;15382;47.578;8.086;2022-11-20T10:06:31;5.25;;;1.40;;
28068;SDS011;15382;47.578;8.086;2022-11-20T10:37:16;4.20;;;1.50;;
28068;SDS011;15382;47.578;8.086;2022-11-20T10:47:21;3.23;;;1.40;;
28068;SDS011;15382;47.578;8.086;2022-11-20T10:57:52;3.85;;;1.67;;
28068;SDS011;15382;47.578;8.086;2022-11-20T11:07:54;2.70;;;1.52;;
28068;SDS011;15382;47.578;8.086;2022-11-20T11:17:56;2.45;;;1.63;;
28068;SDS011;15382;47.578;8.086;2022-11-20T11:38:06;2.47;;;1.70;;
28068;SDS011;15382;47.578;8.086;2022-11-20T11:48:12;11.23;;;3.78;;
28068;SDS011;15382;47.578;8.086;2022-11-20T12:19:04;8.73;;;3.92;;
28068;SDS011;15382;47.578;8.086;2022-11-20T12:49:42;5.85;;;2.97;;
28068;SDS011;15382;47.578;8.086;2022-11-20T13:10:32;5.95;;;1.80;;
28068;SDS011;15382;47.578;8.086;2022-11-20T13:20:46;1.70;;;1.17;;
28068;SDS011;15382;47.578;8.086;2022-11-20T13:30:49;1.48;;;1.08;;
28068;SDS011;15382;47.578;8.086;2022-11-20T13:40:53;5.65;;;1.27;;
28068;SDS011;15382;47.578;8.086;2022-11-20T14:01:12;9.15;;;1.45;;
28068;SDS011;15382;47.578;8.086;2022-11-20T14:11:21;4.72;;;1.30;;
28068;SDS011;15382;47.578;8.086;2022-11-20T14:21:28;7.90;;;2.38;;
28068;SDS011;15382;47.578;8.086;2022-11-20T14:31:29;5.10;;;1.50;;
28068;SDS011;15382;47.578;8.086;2022-11-20T14:41:30;1.40;;;0.90;;
28068;SDS011;15382;47.578;8.086;2022-11-20T14:51:34;5.10;;;2.38;;
28068;SDS011;15382;47.578;8.086;2022-11-20T15:01:38;0.95;;;0.65;;
28068;SDS011;15382;47.578;8.086;2022-11-20T15:11:39;5.97;;;2.67;;
28068;SDS011;15382;47.578;8.086;2022-11-20T15:21:50;4.05;;;1.80;;
28068;SDS011;15382;47.578;8.086;2022-11-20T15:31:51;2.80;;;1.23;;
28068;SDS011;15382;47.578;8.086;2022-11-20T15:41:54;1.85;;;0.98;;
28068;SDS011;15382;47.578;8.086;2022-11-20T15:51:55;2.83;;;1.07;;
28068;SDS011;15382;47.578;8.086;2022-11-20T16:01:55;1.60;;;1.07;;
28068;SDS011;15382;47.578;8.086;2022-11-20T16:11:56;2.30;;;1.10;;
28068;SDS011;15382;47.578;8.086;2022-11-20T16:21:59;1.23;;;1.00;;
28068;SDS011;15382;47.578;8.086;2022-11-20T16:32:01;5.47;;;1.70;;
28068;SDS011;15382;47.578;8.086;2022-11-20T16:52:03;3.15;;;2.08;;
28068;SDS011;15382;47.578;8.086;2022-11-20T17:12:05;5.67;;;3.13;;
28068;SDS011;15382;47.578;8.086;2022-11-20T17:22:06;9.98;;;4.35;;
28068;SDS011;15382;47.578;8.086;2022-11-20T17:42:07;8.47;;;4.37;;
28068;SDS011;15382;47.578;8.086;2022-11-20T17:52:26;7.70;;;3.80;;
28068;SDS011;15382;47.578;8.086;2022-11-20T18:12:27;5.33;;;2.77;;
28068;SDS011;15382;47.578;8.086;2022-11-20T18:32:29;4.63;;;2.50;;
28068;SDS011;15382;47.578;8.086;2022-11-20T18:52:49;2.63;;;1.55;;
28068;SDS011;15382;47.578;8.086;2022-11-20T19:12:53;2.78;;;1.23;;
28068;SDS011;15382;47.578;8.086;2022-11-20T19:22:54;4.75;;;1.30;;
28068;SDS011;15382;47.578;8.086;2022-11-20T19:42:57;5.10;;;1.73;;
28068;SDS011;15382;47.578;8.086;2022-11-20T20:02:58;14.63;;;5.10;;
28068;SDS011;15382;47.578;8.086;2022-11-20T20:12:59;6.97;;;1.73;;
28068;SDS011;15382;47.578;8.086;2022-11-20T20:23:00;7.32;;;2.20;;
28068;SDS011;15382;47.578;8.086;2022-11-20T20:33:03;5.07;;;2.53;;
28068;SDS011;15382;47.578;8.086;2022-11-20T20:43:04;4.80;;;2.10;;
28068;SDS011;15382;47.578;8.086;2022-11-20T20:53:04;6.18;;;2.85;;
28068;SDS011;15382;47.578;8.086;2022-11-20T21:03:05;7.88;;;3.70;;
28068;SDS011;15382;47.578;8.086;2022-11-20T21:13:06;3.83;;;2.67;;
28068;SDS011;15382;47.578;8.086;2022-11-20T21:23:07;8.80;;;3.05;;
28068;SDS011;15382;47.578;8.086;2022-11-20T21:33:09;5.50;;;3.13;;
28068;SDS011;15382;47.578;8.086;2022-11-20T21:43:10;9.68;;;4.10;;
28068;SDS011;15382;47.578;8.086;2022-11-20T21:53:11;5.47;;;3.08;;
28068;SDS011;15382;47.578;8.086;2022-11-20T22:03:11;3.63;;;2.10;;
28068;SDS011;15382;47.578;8.086;2022-11-20T22:13:12;3.28;;;1.90;;
28068;SDS011;15382;47.578;8.086;2022-11-20T22:23:32;3.67;;;1.70;;
28068;SDS011;15382;47.578;8.086;2022-11-20T22:33:33;4.05;;;2.13;;
28068;SDS011;15382;47.578;8.086;2022-11-20T22:43:35;5.57;;;1.92;;
28068;SDS011;15382;47.578;8.086;2022-11-20T22:53:37;2.50;;;1.77;;
28068;SDS011;15382;47.578;8.086;2022-11-20T23:03:38;2.85;;;1.73;;
28068;SDS011;15382;47.578;8.086;2022-11-20T23:13:41;2.97;;;1.80;;
28068;SDS011;15382;47.578;8.086;2022-11-20T23:23:47;3.25;;;1.88;;
28068;SDS011;15382;47.578;8.086;2022-11-20T23:33:49;5.18;;;2.20;;
28068;SDS011;15382;47.578;8.086;2022-11-20T23:43:51;6.60;;;1.73;;
28068;SDS011;15382;47.578;8.086;2022-11-20T23:53:52;3.80;;;0.95;;
